Time;durP1;ratioP1;P1;durP2;ratioP2;P2;SDS_P1;SDS_P2;PMS_P1;PMS_P2;Temp;Humidity;BMP_temperature;BMP_pressure;BME280_temperature;BME280_humidity;BME280_pressure;Samples;Min_cycle;Max_cycle;Signal;HPM_P1;HPM_P2
2022/11/07 00:02:18;;;;;;;0.40;0.40;;;14.90;99.90;;;;;;5073034;28;20224;-65
2022/11/07 00:05:07;;;;;;;0.95;0.95;;;14.80;99.90;;;;;;5072828;28;20235;-65
2022/11/07 00:07:55;;;;;;;0.40;0.40;;;14.80;99.90;;;;;;5072971;28;20635;-65
2022/11/07 00:10:45;;;;;;;0.47;0.47;;;14.90;99.90;;;;;;5072562;28;20223;-65
2022/11/07 00:13:33;;;;;;;4.93;2.07;;;14.90;99.90;;;;;;5072123;28;20276;-65
2022/11/07 00:16:21;;;;;;;0.40;0.40;;;14.90;99.90;;;;;;5072780;28;20307;-65
2022/11/07 00:19:09;;;;;;;0.43;0.43;;;14.80;99.90;;;;;;5072878;28;20319;-65
2022/11/07 00:21:57;;;;;;;2.05;1.95;;;14.70;99.90;;;;;;5071106;28;20227;-65
2022/11/07 00:24:45;;;;;;;0.40;0.40;;;14.60;99.90;;;;;;5071903;28;20203;-65
2022/11/07 00:27:35;;;;;;;0.50;0.50;;;14.90;99.90;;;;;;5072617;28;20306;-65
2022/11/07 00:30:23;;;;;;;2.83;2.67;;;14.90;99.90;;;;;;5071862;28;20665;-65
2022/11/07 00:33:11;;;;;;;0.40;0.40;;;14.80;99.90;;;;;;5073761;28;20245;-65
2022/11/07 00:35:59;;;;;;;0.50;0.50;;;15.00;99.90;;;;;;5072681;28;20309;-65
2022/11/07 00:38:47;;;;;;;0.40;0.40;;;14.80;99.90;;;;;;5074028;28;20205;-65
2022/11/07 00:41:36;;;;;;;0.40;0.40;;;14.80;99.90;;;;;;5072824;28;20220;-65
2022/11/07 00:44:26;;;;;;;0.40;0.40;;;14.80;99.90;;;;;;5073498;28;20201;-65
2022/11/07 00:47:13;;;;;;;0.40;0.40;;;14.80;99.90;;;;;;5072288;28;20220;-66
2022/11/07 00:50:01;;;;;;;0.40;0.40;;;14.80;99.90;;;;;;5071565;28;20197;-65
2022/11/07 00:52:49;;;;;;;0.40;0.40;;;14.80;99.90;;;;;;5071992;28;20197;-66
2022/11/07 00:55:37;;;;;;;0.50;0.50;;;14.80;99.90;;;;;;5071823;28;20772;-65
2022/11/07 00:58:25;;;;;;;1.73;1.60;;;14.80;99.90;;;;;;5052556;28;20343;-65
2022/11/07 01:01:18;;;;;;;0.40;0.40;;;14.80;99.90;;;;;;5051526;28;20233;-65
2022/11/07 01:07:12;;;;;;;0.40;0.40;;;15.10;99.90;;;;;;5051300;28;20287;-66
2022/11/07 01:10:01;;;;;;;0.40;0.40;;;14.80;99.90;;;;;;5051372;28;20280;-65
2022/11/07 01:12:49;;;;;;;0.95;0.95;;;14.80;99.90;;;;;;5051798;28;20189;-66
2022/11/07 01:15:40;;;;;;;0.50;0.50;;;14.80;99.90;;;;;;5052173;28;20741;-66
2022/11/07 01:18:30;;;;;;;0.40;0.40;;;14.90;99.90;;;;;;5051181;28;20201;-66
2022/11/07 01:21:18;;;;;;;0.40;0.40;;;14.80;99.90;;;;;;5051604;28;20643;-65
2022/11/07 01:24:07;;;;;;;0.40;0.40;;;14.80;99.90;;;;;;5051248;28;20275;-65
2022/11/07 01:26:55;;;;;;;0.40;0.40;;;14.80;99.90;;;;;;5052477;28;20239;-65
2022/11/07 01:29:43;;;;;;;0.50;0.50;;;14.60;99.90;;;;;;5050510;28;20199;-65
2022/11/07 01:32:31;;;;;;;1.33;1.33;;;14.80;99.90;;;;;;5051756;28;20189;-65
2022/11/07 01:35:20;;;;;;;2.25;2.15;;;14.80;99.90;;;;;;5051232;28;20665;-65
2022/11/07 01:38:08;;;;;;;0.40;0.40;;;14.80;99.90;;;;;;5053233;28;20735;-66
2022/11/07 01:44:23;;;;;;;0.40;0.40;;;14.90;99.90;;;;;;5052227;28;20205;-66
2022/11/07 01:47:11;;;;;;;0.40;0.40;;;14.70;99.90;;;;;;5051342;28;20346;-66
2022/11/07 01:50:00;;;;;;;0.73;0.73;;;14.20;99.90;;;;;;5051371;28;20201;-65
2022/11/07 01:52:52;;;;;;;3.25;3.05;;;14.80;99.90;;;;;;5052763;28;20653;-65
2022/11/07 01:55:40;;;;;;;1.15;1.15;;;14.80;99.90;;;;;;5050735;28;20228;-65
2022/11/07 01:58:28;;;;;;;0.40;0.40;;;14.70;99.90;;;;;;5070686;28;20597;-65
2022/11/07 02:01:17;;;;;;;0.52;0.52;;;14.40;99.90;;;;;;5071263;28;20705;-65
2022/11/07 02:04:06;;;;;;;0.40;0.40;;;14.80;99.90;;;;;;5072118;28;20299;-65
2022/11/07 02:06:58;;;;;;;0.40;0.40;;;14.30;99.90;;;;;;5071795;28;20224;-66
2022/11/07 02:09:48;;;;;;;2.95;1.38;;;14.80;99.90;;;;;;5071199;28;20205;-66
2022/11/07 02:12:37;;;;;;;1.10;1.10;;;14.80;99.90;;;;;;5071832;28;20204;-66
2022/11/07 02:15:25;;;;;;;0.40;0.40;;;14.80;99.90;;;;;;5072028;28;20199;-66
2022/11/07 02:18:13;;;;;;;0.68;0.68;;;14.80;99.90;;;;;;5071136;28;20280;-65
2022/11/07 02:21:08;;;;;;;0.50;0.50;;;14.80;99.90;;;;;;5070968;28;20197;-65
2022/11/07 02:24:01;;;;;;;0.95;0.95;;;14.80;99.90;;;;;;5070877;28;20760;-65
2022/11/07 02:26:53;;;;;;;0.50;0.50;;;14.70;99.90;;;;;;5071494;28;20689;-66
2022/11/07 02:29:44;;;;;;;0.40;0.40;;;14.80;99.90;;;;;;5070184;28;20692;-66
2022/11/07 02:32:33;;;;;;;0.40;0.40;;;14.80;99.90;;;;;;5071152;28;20692;-65
2022/11/07 02:35:38;;;;;;;0.40;0.40;;;14.80;99.90;;;;;;5069620;28;20201;-66
2022/11/07 02:38:29;;;;;;;1.23;1.23;;;14.90;99.90;;;;;;5071756;28;20284;-65
2022/11/07 02:41:21;;;;;;;0.50;0.50;;;14.80;99.90;;;;;;5064552;28;20202;-66
2022/11/07 02:44:12;;;;;;;0.60;0.60;;;14.80;99.90;;;;;;5050709;28;20221;-65
2022/11/07 02:47:00;;;;;;;0.98;0.93;;;14.80;99.90;;;;;;5053501;28;21005;-65
2022/11/07 02:49:48;;;;;;;0.40;0.40;;;14.80;99.90;;;;;;5057453;28;20320;-65
2022/11/07 02:52:36;;;;;;;0.40;0.40;;;14.80;99.90;;;;;;5054393;28;20276;-66
2022/11/07 02:55:24;;;;;;;0.40;0.40;;;14.60;99.90;;;;;;5059128;28;20273;-65
2022/11/07 02:58:12;;;;;;;0.45;0.45;;;14.70;99.90;;;;;;5086063;28;20196;-65
2022/11/07 03:01:05;;;;;;;0.65;0.65;;;14.80;99.90;;;;;;5089439;28;20256;-66
2022/11/07 03:03:53;;;;;;;0.40;0.40;;;14.80;99.90;;;;;;5082735;28;20719;-66
2022/11/07 03:06:41;;;;;;;2.35;2.15;;;14.80;99.90;;;;;;5074012;28;20714;-65
2022/11/07 03:09:29;;;;;;;1.15;1.05;;;14.80;99.90;;;;;;5074208;28;20201;-66
2022/11/07 03:12:18;;;;;;;0.40;0.40;;;14.80;99.90;;;;;;5075766;28;20200;-65
2022/11/07 03:15:08;;;;;;;0.40;0.40;;;14.80;99.90;;;;;;5075595;28;20639;-65
2022/11/07 03:17:58;;;;;;;0.70;0.70;;;14.80;99.90;;;;;;5074068;28;20224;-66
2022/11/07 03:20:46;;;;;;;0.40;0.40;;;14.70;99.90;;;;;;5073494;28;20279;-65
2022/11/07 03:23:35;;;;;;;0.40;0.40;;;14.80;99.90;;;;;;5074380;28;20295;-65
2022/11/07 03:26:23;;;;;;;0.77;0.77;;;14.80;99.90;;;;;;5075392;28;20786;-65
2022/11/07 03:29:11;;;;;;;0.40;0.40;;;14.90;99.90;;;;;;5074039;28;20293;-65
2022/11/07 03:31:59;;;;;;;0.40;0.40;;;14.90;99.90;;;;;;5073015;28;20288;-65
2022/11/07 03:34:49;;;;;;;0.45;0.45;;;15.00;99.90;;;;;;5074956;28;20193;-65
2022/11/07 03:37:37;;;;;;;0.75;0.75;;;14.80;99.90;;;;;;5074046;28;20287;-66
2022/11/07 03:40:25;;;;;;;0.40;0.40;;;14.80;99.90;;;;;;5074640;28;20709;-66
2022/11/07 03:43:13;;;;;;;2.72;2.58;;;14.90;99.90;;;;;;5074472;28;20855;-65
2022/11/07 03:46:01;;;;;;;0.40;0.40;;;15.00;99.90;;;;;;5072948;28;20308;-65
2022/11/07 03:48:49;;;;;;;1.25;1.15;;;14.90;99.90;;;;;;5074858;28;20208;-66
2022/11/07 03:51:39;;;;;;;0.50;0.50;;;14.90;99.90;;;;;;5073556;28;20697;-66
2022/11/07 03:54:27;;;;;;;0.40;0.40;;;14.90;99.90;;;;;;5073566;28;20224;-66
2022/11/07 03:57:15;;;;;;;0.40;0.40;;;14.90;99.90;;;;;;5073129;28;20217;-65
2022/11/07 04:00:05;;;;;;;0.40;0.40;;;14.90;99.90;;;;;;5073360;28;20263;-66
2022/11/07 04:02:53;;;;;;;1.85;1.50;;;14.90;99.90;;;;;;5073192;28;20334;-65
2022/11/07 04:05:41;;;;;;;1.25;1.25;;;14.90;99.90;;;;;;5073774;28;20213;-66
2022/11/07 04:08:31;;;;;;;0.40;0.40;;;14.90;99.90;;;;;;5073857;28;20200;-66
2022/11/07 04:17:27;;;;;;;1.38;1.27;;;14.90;99.90;;;;;;5072244;28;20225;-65
2022/11/07 04:20:15;;;;;;;0.40;0.40;;;14.90;99.90;;;;;;5073928;28;20286;-66
2022/11/07 04:23:03;;;;;;;0.40;0.40;;;14.90;99.90;;;;;;5074366;28;20211;-65
2022/11/07 04:28:58;;;;;;;0.50;0.50;;;14.90;99.90;;;;;;5072139;28;20196;-65
2022/11/07 04:31:46;;;;;;;0.40;0.40;;;14.90;99.90;;;;;;5074164;28;20636;-66
2022/11/07 04:34:34;;;;;;;1.40;1.40;;;14.90;99.90;;;;;;5073880;28;20632;-65
2022/11/07 04:37:22;;;;;;;0.40;0.40;;;14.90;99.90;;;;;;5075935;28;20602;-65
2022/11/07 04:40:11;;;;;;;0.40;0.40;;;15.00;99.90;;;;;;5077691;28;20208;-65
2022/11/07 04:43:02;;;;;;;0.40;0.40;;;15.00;99.90;;;;;;5076296;28;20363;-65
2022/11/07 04:45:50;;;;;;;1.45;1.40;;;15.00;99.90;;;;;;5075266;28;20773;-65
2022/11/07 04:48:38;;;;;;;0.40;0.40;;;15.00;99.90;;;;;;5074917;28;20286;-65
2022/11/07 04:51:26;;;;;;;0.40;0.40;;;14.80;99.90;;;;;;5076665;28;20226;-66
2022/11/07 04:54:15;;;;;;;0.40;0.40;;;15.00;99.90;;;;;;5077742;28;20193;-65
2022/11/07 04:57:03;;;;;;;0.40;0.40;;;14.80;99.90;;;;;;5073239;28;20227;-65
2022/11/07 04:59:52;;;;;;;0.40;0.40;;;14.90;99.90;;;;;;5077276;28;20283;-66
2022/11/07 05:02:40;;;;;;;0.43;0.43;;;15.00;99.90;;;;;;5076013;28;20278;-66
2022/11/07 05:05:29;;;;;;;0.40;0.40;;;14.80;99.90;;;;;;5077459;28;20212;-66
2022/11/07 05:08:17;;;;;;;0.40;0.40;;;15.00;99.90;;;;;;5074997;28;20200;-65
2022/11/07 05:11:05;;;;;;;0.50;0.50;;;15.00;99.90;;;;;;5075172;28;20260;-65
2022/11/07 05:13:53;;;;;;;0.40;0.40;;;15.00;99.90;;;;;;5073526;28;20246;-66
2022/11/07 05:16:43;;;;;;;0.40;0.40;;;15.00;99.90;;;;;;5073656;28;20249;-65
2022/11/07 05:19:31;;;;;;;1.00;1.00;;;14.80;99.90;;;;;;5072524;28;20208;-65
2022/11/07 05:25:24;;;;;;;0.40;0.40;;;15.00;99.90;;;;;;5072532;28;20252;-66
2022/11/07 05:28:15;;;;;;;0.40;0.40;;;15.10;99.90;;;;;;5071194;28;20228;-65
2022/11/07 05:31:04;;;;;;;0.85;0.85;;;15.00;99.90;;;;;;5071727;28;20303;-66
2022/11/07 05:33:54;;;;;;;0.40;0.40;;;15.00;99.90;;;;;;5071877;28;20246;-65
2022/11/07 05:36:42;;;;;;;0.40;0.40;;;15.00;99.90;;;;;;5071936;28;20238;-65
2022/11/07 05:39:30;;;;;;;0.40;0.40;;;15.00;99.90;;;;;;5070984;28;20232;-66
2022/11/07 05:42:18;;;;;;;0.30;0.30;;;15.00;99.90;;;;;;5071202;28;20283;-66
2022/11/07 05:45:08;;;;;;;0.40;0.40;;;15.00;99.90;;;;;;5072598;28;20220;-66
2022/11/07 05:47:59;;;;;;;0.40;0.40;;;15.00;99.90;;;;;;5071688;28;20339;-65
2022/11/07 05:50:49;;;;;;;0.50;0.50;;;15.00;99.90;;;;;;5071813;28;20196;-65
2022/11/07 05:53:36;;;;;;;0.40;0.40;;;15.00;99.90;;;;;;5071555;28;20203;-65
2022/11/07 05:56:25;;;;;;;0.40;0.40;;;15.00;99.90;;;;;;5071090;28;20223;-65
2022/11/07 05:59:13;;;;;;;0.40;0.40;;;15.10;99.90;;;;;;5051442;28;20267;-65
2022/11/07 06:02:02;;;;;;;0.40;0.40;;;15.10;99.90;;;;;;5051256;28;20229;-65
2022/11/07 06:04:50;;;;;;;2.58;2.47;;;15.10;99.90;;;;;;5051039;28;20213;-65
2022/11/07 06:07:40;;;;;;;0.40;0.40;;;15.10;99.90;;;;;;5052355;28;20197;-65
2022/11/07 06:10:28;;;;;;;0.40;0.40;;;15.10;99.90;;;;;;5051513;28;20308;-65
2022/11/07 06:13:17;;;;;;;0.40;0.40;;;15.10;99.90;;;;;;5052271;28;20675;-65
2022/11/07 06:16:06;;;;;;;4.60;4.38;;;15.10;99.90;;;;;;5052422;28;20217;-65
2022/11/07 06:18:54;;;;;;;0.98;0.98;;;15.10;99.90;;;;;;5052953;28;20633;-65
2022/11/07 06:21:42;;;;;;;1.17;1.10;;;15.00;99.90;;;;;;5057262;28;20212;-66
2022/11/07 06:24:31;;;;;;;0.77;0.77;;;15.30;99.90;;;;;;5057229;28;20289;-65
2022/11/07 06:27:20;;;;;;;0.50;0.50;;;15.10;99.90;;;;;;5055871;28;20224;-65
2022/11/07 06:30:08;;;;;;;0.40;0.40;;;15.10;99.90;;;;;;5058040;28;20197;-66
2022/11/07 06:33:00;;;;;;;0.40;0.40;;;15.10;99.90;;;;;;5057878;28;20670;-65
2022/11/07 06:35:48;;;;;;;0.40;0.40;;;15.10;99.90;;;;;;5057375;28;20691;-64
2022/11/07 06:38:37;;;;;;;0.40;0.40;;;15.10;99.90;;;;;;5057148;28;20212;-64
2022/11/07 06:41:26;;;;;;;0.40;0.40;;;15.10;99.90;;;;;;5067758;28;20264;-65
2022/11/07 06:44:15;;;;;;;0.40;0.40;;;15.20;99.90;;;;;;5078802;28;20193;-64
2022/11/07 06:47:03;;;;;;;0.40;0.40;;;15.30;99.90;;;;;;5072109;28;20218;-65
2022/11/07 06:49:51;;;;;;;0.73;0.63;;;15.50;99.90;;;;;;5064638;28;20198;-65
2022/11/07 06:52:39;;;;;;;0.40;0.40;;;15.40;99.90;;;;;;5058309;28;20193;-66
2022/11/07 06:55:27;;;;;;;2.38;2.28;;;15.30;99.90;;;;;;5057552;28;20193;-67
2022/11/07 06:58:16;;;;;;;0.80;0.80;;;15.40;99.90;;;;;;5065649;28;20211;-66
2022/11/07 07:01:07;;;;;;;0.40;0.40;;;15.30;99.90;;;;;;5059959;28;20225;-67
2022/11/07 07:03:55;;;;;;;0.40;0.40;;;15.20;99.90;;;;;;5065431;28;20205;-66
2022/11/07 07:06:44;;;;;;;3.10;2.85;;;15.20;99.90;;;;;;5062444;28;20232;-66
2022/11/07 07:09:32;;;;;;;0.43;0.43;;;15.30;99.90;;;;;;5068872;28;20200;-66
2022/11/07 07:12:21;;;;;;;4.38;1.75;;;15.20;99.90;;;;;;5066502;28;20208;-66
2022/11/07 07:15:10;;;;;;;0.50;0.50;;;15.20;99.90;;;;;;5066073;28;20196;-66
2022/11/07 07:17:59;;;;;;;0.40;0.40;;;15.60;99.90;;;;;;5073742;28;20255;-66
2022/11/07 07:20:49;;;;;;;0.40;0.40;;;15.80;99.90;;;;;;5073809;28;20205;-66
2022/11/07 07:23:38;;;;;;;0.40;0.40;;;15.90;99.90;;;;;;5074016;28;20680;-66
2022/11/07 07:26:27;;;;;;;1.85;1.75;;;16.10;99.90;;;;;;5069814;28;20229;-66
2022/11/07 07:29:15;;;;;;;0.40;0.40;;;16.40;99.90;;;;;;5055093;28;20284;-66
2022/11/07 07:32:04;;;;;;;0.47;0.47;;;16.60;99.90;;;;;;5052437;28;20197;-66
2022/11/07 07:34:52;;;;;;;0.40;0.40;;;16.90;99.90;;;;;;5055233;28;20558;-66
2022/11/07 07:37:41;;;;;;;0.40;0.40;;;17.30;99.90;;;;;;5081365;22;20719;-66
2022/11/07 07:40:29;;;;;;;0.40;0.40;;;17.40;99.90;;;;;;5071533;28;20258;-65
2022/11/07 07:43:17;;;;;;;0.47;0.47;;;17.70;99.90;;;;;;5072018;28;20211;-66
2022/11/07 07:46:07;;;;;;;0.40;0.40;;;18.30;99.90;;;;;;5072504;28;20347;-67
2022/11/07 07:48:56;;;;;;;0.40;0.40;;;18.30;99.90;;;;;;5072465;28;20319;-67
2022/11/07 07:51:44;;;;;;;0.40;0.40;;;18.50;99.90;;;;;;5071404;28;20588;-69
2022/11/07 07:54:32;;;;;;;0.40;0.40;;;18.80;99.90;;;;;;5052856;28;20284;-68
2022/11/07 07:57:20;;;;;;;0.40;0.40;;;19.00;99.80;;;;;;5053375;28;20221;-66
2022/11/07 08:00:11;;;;;;;0.40;0.40;;;19.20;99.50;;;;;;5052213;28;20297;-65
2022/11/07 08:03:00;;;;;;;0.40;0.40;;;19.40;99.30;;;;;;5052499;28;20208;-64
2022/11/07 08:05:54;;;;;;;0.40;0.40;;;19.50;99.20;;;;;;5052902;28;20247;-67
2022/11/07 08:08:42;;;;;;;0.40;0.40;;;19.60;98.70;;;;;;5052841;28;20550;-65
2022/11/07 08:11:30;;;;;;;0.40;0.40;;;19.70;98.60;;;;;;5053734;28;20348;-64
2022/11/07 08:14:18;;;;;;;1.50;1.50;;;19.80;98.60;;;;;;5053454;28;20330;-66
2022/11/07 08:17:06;;;;;;;0.70;0.70;;;19.80;98.30;;;;;;5052145;28;20723;-65
2022/11/07 08:19:54;;;;;;;0.40;0.40;;;19.80;98.20;;;;;;5051840;28;20205;-69
2022/11/07 08:22:44;;;;;;;0.40;0.40;;;19.90;98.20;;;;;;5052693;28;20197;-68
2022/11/07 08:25:32;;;;;;;0.40;0.40;;;19.90;98.10;;;;;;5052115;28;20282;-63
2022/11/07 08:28:21;;;;;;;0.40;0.40;;;19.90;98.20;;;;;;5054861;28;20296;-69
2022/11/07 08:31:11;;;;;;;0.40;0.40;;;19.80;98.10;;;;;;5071447;28;20673;-68
2022/11/07 08:34:00;;;;;;;3.28;3.15;;;19.80;98.50;;;;;;5071567;28;20246;-67
2022/11/07 08:36:48;;;;;;;0.40;0.40;;;19.70;98.30;;;;;;5071851;28;20724;-69
2022/11/07 08:39:38;;;;;;;0.73;0.73;;;19.60;98.50;;;;;;5055068;28;20211;-67
2022/11/07 08:42:26;;;;;;;0.40;0.40;;;19.60;98.70;;;;;;5051807;28;20617;-68
2022/11/07 08:45:14;;;;;;;0.40;0.40;;;19.50;98.90;;;;;;5052356;28;20581;-66
2022/11/07 08:48:02;;;;;;;0.60;0.60;;;19.50;98.90;;;;;;5062409;28;20302;-71
2022/11/07 08:50:55;;;;;;;0.60;0.60;;;20.50;99.60;;;;;;5063301;28;20272;-67
2022/11/07 08:53:43;;;;;;;0.40;0.40;;;19.40;99.30;;;;;;5062697;28;20564;-69
2022/11/07 08:56:33;;;;;;;0.40;0.40;;;19.50;99.50;;;;;;5057798;28;20217;-68
2022/11/07 08:59:21;;;;;;;0.40;0.40;;;19.50;99.80;;;;;;5057661;28;20287;-71
2022/11/07 09:02:11;;;;;;;0.40;0.40;;;19.70;99.70;;;;;;5061726;28;20212;-68
2022/11/07 09:05:19;;;;;;;0.40;0.40;;;19.80;99.90;;;;;;5051538;28;20197;-68
2022/11/07 09:08:07;;;;;;;0.40;0.40;;;19.90;99.90;;;;;;5056882;28;20420;-69
2022/11/07 09:11:00;;;;;;;1.77;1.70;;;20.10;99.80;;;;;;5054973;28;20208;-68
2022/11/07 09:13:49;;;;;;;0.40;0.40;;;20.10;99.50;;;;;;5062176;28;20358;-68
2022/11/07 09:16:37;;;;;;;0.40;0.40;;;20.20;99.50;;;;;;5050941;28;20346;-66
2022/11/07 09:19:26;;;;;;;0.40;0.40;;;20.30;99.30;;;;;;5054304;28;20598;-66
2022/11/07 09:22:14;;;;;;;0.40;0.40;;;20.40;99.20;;;;;;5066106;28;20232;-68
2022/11/07 09:25:03;;;;;;;0.40;0.40;;;20.50;98.90;;;;;;5060612;28;20286;-66
2022/11/07 09:27:51;;;;;;;0.40;0.40;;;20.50;98.80;;;;;;5063674;28;20230;-66
2022/11/07 09:30:40;;;;;;;0.40;0.40;;;20.50;98.50;;;;;;5061667;28;20196;-66
2022/11/07 09:33:29;;;;;;;0.40;0.40;;;20.60;98.50;;;;;;5060936;28;20263;-66
2022/11/07 09:36:17;;;;;;;1.20;1.20;;;20.60;98.30;;;;;;5062810;28;20575;-65
2022/11/07 09:39:05;;;;;;;0.68;0.68;;;20.50;98.30;;;;;;5059893;28;20414;-66
2022/11/07 09:42:01;;;;;;;0.40;0.40;;;20.60;98.30;;;;;;5063245;28;20199;-67
2022/11/07 09:44:54;;;;;;;0.40;0.40;;;20.50;98.20;;;;;;5067818;28;20280;-65
2022/11/07 09:47:49;;;;;;;0.40;0.40;;;20.50;98.40;;;;;;5051497;28;20225;-66
2022/11/07 09:50:40;;;;;;;0.40;0.40;;;20.50;98.60;;;;;;5050684;28;20209;-68
2022/11/07 09:53:32;;;;;;;0.40;0.40;;;20.50;98.70;;;;;;5051661;28;20201;-67
2022/11/07 09:56:21;;;;;;;0.40;0.40;;;20.60;98.80;;;;;;5074568;28;20216;-68
2022/11/07 09:59:18;;;;;;;0.40;0.40;;;20.60;98.60;;;;;;5074584;28;20578;-64
2022/11/07 10:02:14;;;;;;;2.88;2.67;;;20.60;98.70;;;;;;5075327;28;20204;-68
2022/11/07 10:05:04;;;;;;;0.40;0.40;;;20.70;98.80;;;;;;5075871;28;20296;-66
2022/11/07 10:08:01;;;;;;;0.40;0.40;;;20.80;99.00;;;;;;5066223;28;20233;-66
2022/11/07 10:10:53;;;;;;;0.40;0.40;;;20.90;98.90;;;;;;5055181;28;20211;-65
2022/11/07 10:13:52;;;;;;;0.40;0.40;;;21.00;98.70;;;;;;5069326;28;20350;-65
2022/11/07 10:16:50;;;;;;;1.77;1.67;;;21.10;98.80;;;;;;5074616;28;20258;-64
2022/11/07 10:20:02;;;;;;;0.40;0.40;;;21.20;98.70;;;;;;5075239;28;20201;-65
2022/11/07 10:23:03;;;;;;;0.40;0.40;;;21.40;98.50;;;;;;5060234;28;20197;-64
2022/11/07 10:25:59;;;;;;;0.40;0.40;;;21.40;98.30;;;;;;5055531;28;20626;-64
2022/11/07 10:28:53;;;;;;;0.40;0.40;;;21.60;98.10;;;;;;5064239;28;20648;-66
2022/11/07 10:31:44;;;;;;;0.40;0.40;;;21.70;98.10;;;;;;5068033;28;20198;-65
2022/11/07 10:34:40;;;;;;;0.40;0.40;;;21.90;98.00;;;;;;5054737;28;20219;-64
2022/11/07 10:37:28;;;;;;;0.40;0.40;;;22.00;97.70;;;;;;5071012;28;20607;-65
2022/11/07 10:40:20;;;;;;;0.40;0.40;;;22.10;97.40;;;;;;5074693;28;20227;-63
2022/11/07 10:43:15;;;;;;;0.40;0.40;;;22.10;97.30;;;;;;5076138;28;20342;-64
2022/11/07 10:46:11;;;;;;;0.40;0.40;;;22.20;97.10;;;;;;5069532;28;20285;-68
2022/11/07 10:49:02;;;;;;;0.40;0.40;;;22.30;97.10;;;;;;5077561;28;20196;-66
2022/11/07 10:51:51;;;;;;;0.40;0.40;;;22.30;96.90;;;;;;5074699;28;20207;-68
2022/11/07 10:54:39;;;;;;;0.40;0.40;;;22.40;97.20;;;;;;5056913;28;20207;-65
2022/11/07 10:57:29;;;;;;;0.40;0.40;;;22.40;96.90;;;;;;5067464;28;20347;-63
2022/11/07 11:00:23;;;;;;;0.40;0.40;;;22.40;96.80;;;;;;5069717;28;20216;-64
2022/11/07 11:03:24;;;;;;;0.40;0.40;;;22.40;96.70;;;;;;5055517;28;20198;-64
2022/11/07 11:06:30;;;;;;;0.40;0.40;;;22.30;96.80;;;;;;5054892;28;20217;-65
2022/11/07 11:09:18;;;;;;;1.35;1.35;;;22.30;96.70;;;;;;5056028;28;20284;-65
2022/11/07 11:12:12;;;;;;;0.40;0.40;;;22.30;97.00;;;;;;5056332;28;20205;-63
2022/11/07 11:15:10;;;;;;;0.40;0.40;;;22.30;97.10;;;;;;5056203;28;20284;-65
2022/11/07 11:18:00;;;;;;;0.50;0.50;;;22.20;97.30;;;;;;5055562;28;20224;-65
2022/11/07 11:20:56;;;;;;;0.40;0.40;;;22.20;97.00;;;;;;5055324;28;20206;-64
2022/11/07 11:23:45;;;;;;;0.40;0.40;;;22.20;97.10;;;;;;5054871;28;20213;-64
2022/11/07 11:26:36;;;;;;;0.40;0.40;;;22.20;97.10;;;;;;5054196;28;20311;-66
2022/11/07 11:29:32;;;;;;;0.43;0.43;;;22.10;97.00;;;;;;5053781;28;20213;-65
2022/11/07 11:32:34;;;;;;;0.40;0.40;;;22.20;97.00;;;;;;5054156;28;20204;-65
2022/11/07 11:35:34;;;;;;;0.40;0.40;;;22.20;96.70;;;;;;5054510;28;20628;-64
2022/11/07 11:38:31;;;;;;;0.40;0.40;;;22.30;97.00;;;;;;5054965;28;20209;-69
2022/11/07 11:41:24;;;;;;;0.40;0.40;;;22.30;96.80;;;;;;5054808;28;20229;-66
2022/11/07 11:44:16;;;;;;;0.40;0.40;;;22.40;96.70;;;;;;5062769;28;20204;-64
2022/11/07 11:47:10;;;;;;;0.40;0.40;;;22.50;96.50;;;;;;5063974;28;20267;-65
2022/11/07 11:50:08;;;;;;;12.20;3.03;;;22.50;96.40;;;;;;5063351;28;20699;-63
2022/11/07 11:52:59;;;;;;;0.40;0.40;;;22.60;96.20;;;;;;5059312;28;20304;-64
2022/11/07 11:55:57;;;;;;;1.05;1.05;;;22.70;96.40;;;;;;5064314;28;20271;-64
2022/11/07 11:59:00;;;;;;;0.40;0.40;;;22.70;96.30;;;;;;5054322;28;20284;-65
2022/11/07 12:01:57;;;;;;;0.40;0.40;;;22.70;96.30;;;;;;5053967;28;20200;-64
2022/11/07 12:04:55;;;;;;;0.40;0.40;;;22.70;96.10;;;;;;5063796;28;20280;-65
2022/11/07 12:07:55;;;;;;;0.40;0.40;;;22.70;95.90;;;;;;5063376;28;20394;-65
2022/11/07 12:10:49;;;;;;;0.40;0.40;;;22.70;95.80;;;;;;5059549;28;20625;-64
2022/11/07 12:13:47;;;;;;;0.40;0.40;;;22.70;95.90;;;;;;5058739;28;20288;-65
2022/11/07 12:16:41;;;;;;;0.40;0.40;;;22.70;96.10;;;;;;5062591;28;20267;-65
2022/11/07 12:19:35;;;;;;;0.40;0.40;;;22.60;96.10;;;;;;5063679;28;20190;-66
2022/11/07 12:22:37;;;;;;;0.40;0.40;;;22.50;96.10;;;;;;5064334;28;20457;-65
2022/11/07 12:25:30;;;;;;;0.40;0.40;;;22.50;96.10;;;;;;5065684;28;20641;-67
2022/11/07 12:28:32;;;;;;;0.40;0.40;;;22.50;96.50;;;;;;5066614;28;20229;-67
2022/11/07 12:31:33;;;;;;;0.40;0.40;;;22.60;96.30;;;;;;5064056;28;20308;-67
2022/11/07 12:34:36;;;;;;;0.40;0.40;;;22.60;95.70;;;;;;5071584;28;20281;-65
2022/11/07 12:37:43;;;;;;;0.40;0.40;;;22.60;96.10;;;;;;5060965;28;20368;-64
2022/11/07 12:40:41;;;;;;;0.40;0.40;;;22.70;96.10;;;;;;5064074;28;20212;-66
2022/11/07 12:43:44;;;;;;;0.40;0.40;;;22.70;96.00;;;;;;5057365;28;20204;-65
2022/11/07 12:46:45;;;;;;;0.40;0.40;;;22.80;96.20;;;;;;5062815;28;20213;-65
2022/11/07 12:49:49;;;;;;;0.40;0.40;;;22.80;96.00;;;;;;5062951;28;20225;-65
2022/11/07 12:52:48;;;;;;;0.40;0.40;;;22.90;95.80;;;;;;5073271;28;20240;-65
2022/11/07 12:55:42;;;;;;;0.40;0.40;;;22.90;95.50;;;;;;5064837;28;20215;-66
2022/11/07 12:58:34;;;;;;;0.40;0.40;;;22.90;95.70;;;;;;5056337;28;20200;-67
2022/11/07 13:01:28;;;;;;;0.40;0.40;;;23.00;95.50;;;;;;5064953;28;20199;-65
2022/11/07 13:04:22;;;;;;;0.40;0.40;;;23.00;95.50;;;;;;5075934;28;20211;-70
2022/11/07 13:07:18;;;;;;;0.40;0.40;;;23.00;95.40;;;;;;5077693;28;20659;-65
2022/11/07 13:10:15;;;;;;;0.40;0.40;;;22.90;95.30;;;;;;5068722;28;20305;-65
2022/11/07 13:13:10;;;;;;;0.40;0.40;;;22.90;95.30;;;;;;5074423;28;20288;-66
2022/11/07 13:16:06;;;;;;;0.40;0.40;;;22.90;95.30;;;;;;5060301;28;20287;-65
2022/11/07 13:19:09;;;;;;;0.40;0.40;;;22.80;95.40;;;;;;5073279;28;20257;-65
2022/11/07 13:22:02;;;;;;;0.40;0.40;;;22.80;95.40;;;;;;5071623;28;20287;-66
2022/11/07 13:24:53;;;;;;;0.60;0.60;;;22.70;95.50;;;;;;5061283;28;20201;-66
2022/11/07 13:27:44;;;;;;;0.40;0.40;;;22.60;95.50;;;;;;5067240;28;20232;-65
2022/11/07 13:30:36;;;;;;;0.40;0.40;;;22.50;95.80;;;;;;5066347;28;20224;-71
2022/11/07 13:33:28;;;;;;;0.40;0.40;;;22.40;95.80;;;;;;5069934;28;20767;-65
2022/11/07 13:36:26;;;;;;;0.40;0.40;;;22.30;95.90;;;;;;5068846;28;20288;-66
2022/11/07 13:39:15;;;;;;;0.40;0.40;;;23.50;96.60;;;;;;5043434;22;1144568;-67
2022/11/07 13:42:04;;;;;;;0.40;0.40;;;22.10;96.20;;;;;;5054420;28;20194;-67
2022/11/07 13:44:55;;;;;;;0.40;0.40;;;22.00;96.40;;;;;;5061013;28;20202;-68
2022/11/07 13:47:45;;;;;;;0.40;0.40;;;21.90;96.50;;;;;;5057869;28;20197;-67
2022/11/07 13:50:38;;;;;;;0.40;0.40;;;21.80;96.60;;;;;;5046933;28;20339;-68
2022/11/07 13:53:33;;;;;;;0.40;0.40;;;21.70;96.80;;;;;;5028730;28;20202;-68
2022/11/07 13:56:29;;;;;;;0.40;0.40;;;21.60;96.90;;;;;;5031586;28;20212;-67
2022/11/07 13:59:31;;;;;;;0.40;0.40;;;21.50;97.00;;;;;;5026580;28;20304;-67
2022/11/07 14:02:25;;;;;;;0.40;0.40;;;21.40;97.10;;;;;;5033686;28;20377;-67
2022/11/07 14:05:15;;;;;;;0.40;0.40;;;21.40;97.30;;;;;;5038608;28;20194;-67
2022/11/07 14:08:07;;;;;;;0.40;0.40;;;21.30;97.50;;;;;;5045173;28;20225;-68
2022/11/07 14:10:55;;;;;;;0.60;0.60;;;21.20;97.40;;;;;;5031500;28;20573;-67
2022/11/07 14:13:47;;;;;;;0.40;0.40;;;21.20;97.60;;;;;;5031789;28;20247;-68
2022/11/07 14:16:37;;;;;;;0.40;0.40;;;21.20;97.90;;;;;;5031481;28;20307;-68
2022/11/07 14:19:29;;;;;;;0.40;0.40;;;21.20;98.00;;;;;;5026384;28;20304;-68
2022/11/07 14:22:24;;;;;;;0.40;0.40;;;21.30;98.00;;;;;;5032800;28;20285;-68
2022/11/07 14:25:22;;;;;;;9.55;7.95;;;21.30;97.80;;;;;;5030377;28;20245;-68
2022/11/07 14:28:15;;;;;;;6.70;4.00;;;21.50;98.00;;;;;;5030623;28;20213;-68
2022/11/07 14:31:06;;;;;;;0.82;0.82;;;21.60;97.80;;;;;;5029895;28;20221;-68
2022/11/07 14:33:56;;;;;;;0.40;0.40;;;21.70;97.70;;;;;;5029223;28;20206;-68
2022/11/07 14:36:47;;;;;;;0.40;0.40;;;21.80;97.60;;;;;;5048773;28;20276;-68
2022/11/07 14:39:36;;;;;;;0.40;0.40;;;21.90;97.40;;;;;;5038339;28;20228;-68
2022/11/07 14:42:24;;;;;;;0.40;0.40;;;22.00;97.30;;;;;;5051670;28;20208;-68
2022/11/07 14:45:15;;;;;;;0.40;0.40;;;22.10;97.10;;;;;;5044931;28;20276;-68
2022/11/07 14:48:23;;;;;;;1.25;1.15;;;22.20;97.00;;;;;;5046601;28;20256;-68
2022/11/07 14:51:14;;;;;;;0.40;0.40;;;22.20;96.80;;;;;;5054354;28;20347;-68
2022/11/07 14:54:09;;;;;;;0.40;0.40;;;22.20;96.70;;;;;;5054213;28;20280;-68
2022/11/07 14:57:00;;;;;;;0.40;0.40;;;22.30;96.60;;;;;;5055150;28;20679;-68
2022/11/07 14:59:48;;;;;;;0.40;0.40;;;22.30;96.50;;;;;;5041572;28;20293;-68
2022/11/07 15:02:36;;;;;;;0.40;0.40;;;22.30;96.50;;;;;;5040701;28;20225;-68
2022/11/07 15:05:27;;;;;;;0.40;0.40;;;22.30;96.50;;;;;;5041418;28;20604;-68
2022/11/07 15:08:29;;;;;;;0.40;0.40;;;22.20;96.40;;;;;;5047127;28;20202;-68